Time;durP1;ratioP1;P1;durP2;ratioP2;P2;SDS_P1;SDS_P2;PMS_P1;PMS_P2;Temp;Humidity;BMP_temperature;BMP_pressure;BME280_temperature;BME280_humidity;BME280_pressure;Samples;Min_cycle;Max_cycle;Signal;HPM_P1;HPM_P2
2023/05/31 00:01:25;;;;;;;10.40;6.10;;;;;;;11.53;65.78;99170.69;104612;1260;97914;-63
2023/05/31 00:03:52;;;;;;;12.00;6.00;;;;;;;11.44;66.03;99167.13;104605;1266;98033;-63
2023/05/31 00:06:19;;;;;;;13.60;6.40;;;;;;;11.35;67.37;99167.67;104642;1266;98430;-63
2023/05/31 00:08:46;;;;;;;14.30;6.40;;;;;;;11.26;67.32;99165.43;104540;1266;97976;-62
2023/05/31 00:11:13;;;;;;;11.50;6.00;;;;;;;11.26;67.68;99166.97;104526;1276;98850;-62
2023/05/31 00:13:41;;;;;;;12.20;6.30;;;;;;;11.24;67.27;99164.64;104607;1274;97953;-62
2023/05/31 00:16:10;;;;;;;10.30;5.60;;;;;;;11.27;67.26;99163.70;104718;1265;98677;-62
2023/05/31 00:18:57;;;;;;;13.80;6.90;;;;;;;11.32;66.87;99160.42;104590;1274;113322;-63
2023/05/31 00:21:25;;;;;;;11.00;6.50;;;;;;;11.36;66.84;99162.28;104362;1270;282141;-63
2023/05/31 00:23:53;;;;;;;11.20;6.00;;;;;;;11.38;66.90;99165.73;104654;1264;108616;-63
2023/05/31 00:26:21;;;;;;;18.70;6.20;;;;;;;11.39;66.98;99163.80;104660;1279;98075;-62
2023/05/31 00:28:49;;;;;;;13.90;6.10;;;;;;;11.39;66.76;99162.59;104624;1266;98149;-62
2023/05/31 00:31:16;;;;;;;15.00;7.00;;;;;;;11.36;67.11;99163.58;104387;1268;111234;-62
2023/05/31 00:33:44;;;;;;;12.00;6.50;;;;;;;11.33;67.29;99162.60;104530;1274;97936;-63
2023/05/31 00:36:11;;;;;;;10.60;6.50;;;;;;;11.27;67.38;99163.55;104375;1270;107654;-64
2023/05/31 00:38:39;;;;;;;11.30;6.00;;;;;;;11.21;67.69;99164.77;104614;1266;99114;-61
2023/05/31 00:41:09;;;;;;;9.30;5.90;;;;;;;11.17;67.89;99167.63;104603;1274;99229;-62
2023/05/31 00:43:36;;;;;;;12.00;6.70;;;;;;;11.10;67.93;99165.92;104571;1276;111923;-67
2023/05/31 00:46:05;;;;;;;13.80;6.30;;;;;;;11.00;68.23;99167.09;104518;1269;98592;-64
2023/05/31 00:48:33;;;;;;;8.60;5.70;;;;;;;10.93;68.23;99168.00;104442;1279;107448;-64
2023/05/31 00:51:01;;;;;;;10.40;5.90;;;;;;;10.91;68.18;99168.91;104665;1265;97922;-63
2023/05/31 00:53:28;;;;;;;12.00;6.10;;;;;;;10.79;68.82;99170.34;104411;1270;98090;-62
2023/05/31 00:55:56;;;;;;;10.90;5.80;;;;;;;10.67;68.88;99166.98;104658;1274;97918;-62
2023/05/31 00:58:24;;;;;;;10.90;5.70;;;;;;;10.64;69.17;99163.53;104628;1273;97925;-63
2023/05/31 01:00:51;;;;;;;11.80;5.70;;;;;;;10.62;69.42;99167.10;104537;1277;108208;-63
2023/05/31 01:03:20;;;;;;;14.80;5.60;;;;;;;10.59;69.70;99166.30;104610;1274;99216;-63
2023/05/31 01:05:47;;;;;;;9.50;5.60;;;;;;;10.55;69.92;99170.77;104627;1261;98559;-62
2023/05/31 01:08:16;;;;;;;12.40;6.20;;;;;;;10.51;70.02;99173.45;104604;1267;99337;-63
2023/05/31 01:10:44;;;;;;;9.80;5.60;;;;;;;10.53;69.95;99172.05;104455;1269;98174;-63
2023/05/31 01:13:29;;;;;;;11.00;5.60;;;;;;;10.58;69.87;99174.34;104316;1275;107832;-67
2023/05/31 01:16:28;;;;;;;11.60;5.60;;;;;;;10.56;70.00;99177.38;104429;1281;98443;-66
2023/05/31 01:19:03;;;;;;;15.40;5.90;;;;;;;10.52;70.21;99175.14;104502;1267;99203;-64
2023/05/31 01:21:51;;;;;;;9.30;5.60;;;;;;;10.50;70.17;99176.05;104472;1266;111960;-64
2023/05/31 01:24:34;;;;;;;11.50;5.80;;;;;;;10.47;70.43;99173.31;104491;1264;99198;-63
2023/05/31 01:27:01;;;;;;;11.20;5.30;;;;;;;10.45;70.58;99173.98;104447;1266;108725;-63
2023/05/31 01:29:32;;;;;;;12.90;6.30;;;;;;;10.43;70.58;99177.77;104551;1265;97932;-64
2023/05/31 01:32:00;;;;;;;11.30;5.80;;;;;;;10.42;70.67;99179.83;104553;1273;97942;-64
2023/05/31 01:34:27;;;;;;;14.50;7.60;;;;;;;10.41;70.87;99182.36;104545;1271;111855;-61
2023/05/31 01:36:55;;;;;;;10.50;5.90;;;;;;;10.36;71.02;99184.93;104643;1273;98014;-63
2023/05/31 01:39:23;;;;;;;9.10;6.20;;;;;;;10.20;71.35;99190.25;104578;1271;97945;-63
2023/05/31 01:41:51;;;;;;;11.50;5.70;;;;;;;10.16;71.36;99187.91;104558;1267;98012;-63
2023/05/31 01:44:19;;;;;;;12.10;5.90;;;;;;;10.18;71.40;99187.00;104695;1267;99120;-62
2023/05/31 01:46:48;;;;;;;10.60;6.10;;;;;;;10.16;71.68;99185.81;104651;1273;112353;-63
2023/05/31 01:49:16;;;;;;;14.20;5.50;;;;;;;10.13;71.93;99180.35;104450;1280;99235;-63
2023/05/31 01:51:46;;;;;;;14.10;6.50;;;;;;;10.12;71.66;99181.89;104557;1264;108635;-62
2023/05/31 01:54:13;;;;;;;14.00;7.20;;;;;;;10.13;71.71;99178.71;104320;1277;98012;-66
2023/05/31 01:56:42;;;;;;;21.20;11.40;;;;;;;10.11;71.69;99180.88;104454;1264;98030;-64
2023/05/31 01:59:12;;;;;;;13.00;7.30;;;;;;;10.06;72.06;99179.09;104499;1279;110796;-65
2023/05/31 02:01:40;;;;;;;11.60;7.10;;;;;;;9.99;72.21;99178.42;104413;1271;98229;-63
2023/05/31 02:04:07;;;;;;;13.90;6.50;;;;;;;9.92;72.28;99180.27;104599;1264;108349;-64
2023/05/31 02:06:36;;;;;;;16.80;8.20;;;;;;;9.91;72.39;99178.96;104640;1273;97926;-65
2023/05/31 02:09:06;;;;;;;14.40;7.90;;;;;;;9.88;72.57;99177.53;104640;1266;98131;-66
2023/05/31 02:11:34;;;;;;;18.30;8.20;;;;;;;9.85;72.67;99178.58;104471;1279;111224;-65
2023/05/31 02:14:01;;;;;;;18.40;8.70;;;;;;;9.80;73.03;99179.80;104472;1271;99416;-64
2023/05/31 02:16:28;;;;;;;17.10;8.00;;;;;;;9.77;72.81;99181.04;104679;1266;108575;-67
2023/05/31 02:18:58;;;;;;;15.90;7.70;;;;;;;9.76;72.72;99181.16;104606;1263;98362;-64
2023/05/31 02:21:26;;;;;;;11.80;6.60;;;;;;;9.70;72.81;99179.66;104551;1268;99114;-64
2023/05/31 02:23:53;;;;;;;10.80;6.30;;;;;;;9.63;73.00;99174.99;104614;1266;98002;-66
2023/05/31 02:26:23;;;;;;;13.60;5.90;;;;;;;9.61;73.23;99174.17;104584;1274;97948;-64
2023/05/31 02:28:51;;;;;;;12.60;7.30;;;;;;;9.64;73.22;99174.14;104557;1276;108663;-67
2023/05/31 02:31:18;;;;;;;10.80;6.80;;;;;;;9.63;73.29;99176.02;104574;1274;99271;-67
2023/05/31 02:33:47;;;;;;;10.10;6.00;;;;;;;9.56;73.51;99176.78;104587;1266;99222;-63
2023/05/31 02:36:14;;;;;;;11.10;6.60;;;;;;;9.52;73.59;99177.21;104636;1265;112299;-64
2023/05/31 02:38:43;;;;;;;15.20;6.70;;;;;;;9.47;73.69;99182.03;104579;1266;98056;-63
2023/05/31 02:41:10;;;;;;;15.30;6.90;;;;;;;9.37;73.87;99182.10;104498;1270;107320;-63
2023/05/31 02:43:39;;;;;;;12.90;7.30;;;;;;;9.29;74.02;99184.23;104639;1283;97933;-63
2023/05/31 02:46:06;;;;;;;14.20;7.10;;;;;;;9.23;74.22;99185.12;104502;1270;98140;-66
2023/05/31 02:48:34;;;;;;;14.60;7.20;;;;;;;9.22;74.43;99185.19;104641;1274;99244;-66
2023/05/31 02:51:01;;;;;;;14.30;7.00;;;;;;;9.25;74.73;99186.90;104591;1276;99206;-63
2023/05/31 02:53:29;;;;;;;11.70;6.70;;;;;;;9.27;74.86;99186.27;104553;1266;108531;-63
2023/05/31 02:55:56;;;;;;;11.00;6.90;;;;;;;9.27;75.02;99187.96;104453;1264;97928;-66
2023/05/31 02:58:23;;;;;;;13.00;6.70;;;;;;;9.30;75.12;99187.02;104609;1266;97942;-66
2023/05/31 03:00:51;;;;;;;9.70;6.60;;;;;;;9.29;74.89;99191.56;104549;1264;97937;-66
2023/05/31 03:03:18;;;;;;;11.50;6.60;;;;;;;9.29;75.39;99193.97;104533;1274;98001;-63
2023/05/31 03:05:45;;;;;;;12.50;6.10;;;;;;;9.36;75.51;99192.45;104635;1274;97890;-65
2023/05/31 03:08:13;;;;;;;11.10;6.30;;;;;;;9.44;75.46;99195.20;104540;1261;99187;-63
2023/05/31 03:10:43;;;;;;;12.60;7.10;;;;;;;9.47;75.07;99193.63;104488;1263;98014;-65
2023/05/31 03:13:12;;;;;;;12.20;6.60;;;;;;;9.47;74.67;99198.40;104467;1263;111920;-67
2023/05/31 03:15:40;;;;;;;13.10;6.20;;;;;;;9.46;74.79;99197.05;104317;1278;97960;-70
2023/05/31 03:18:07;;;;;;;12.60;6.70;;;;;;;9.44;74.94;99198.04;104522;1261;98012;-63
2023/05/31 03:20:35;;;;;;;11.80;6.80;;;;;;;9.45;74.82;99198.20;104571;1265;99187;-67
2023/05/31 03:23:03;;;;;;;13.40;6.70;;;;;;;9.50;75.07;99202.30;104650;1266;99107;-64
2023/05/31 03:25:30;;;;;;;13.50;6.40;;;;;;;9.48;75.51;99204.40;104562;1273;99264;-65
2023/05/31 03:27:57;;;;;;;15.50;7.70;;;;;;;9.48;75.75;99202.70;104576;1283;97995;-64
2023/05/31 03:30:24;;;;;;;15.80;7.60;;;;;;;9.53;75.95;99198.93;104606;1274;98295;-64
2023/05/31 03:32:51;;;;;;;14.00;7.30;;;;;;;9.60;75.99;99200.59;104601;1276;98036;-64
2023/05/31 03:35:19;;;;;;;12.80;7.10;;;;;;;9.58;76.79;99202.90;104508;1265;97912;-65
2023/05/31 03:37:46;;;;;;;13.10;7.10;;;;;;;9.58;76.96;99205.81;104529;1273;98964;-65
2023/05/31 03:40:13;;;;;;;10.70;6.70;;;;;;;9.65;76.68;99207.90;104467;1274;98460;-65
2023/05/31 03:42:42;;;;;;;15.40;7.50;;;;;;;9.85;76.28;99205.79;104380;1276;98400;-64
2023/05/31 03:45:25;;;;;;;12.70;7.80;;;;;;;10.10;76.95;99211.98;104493;1273;97937;-68
2023/05/31 03:47:52;;;;;;;13.60;7.50;;;;;;;10.27;76.60;99212.92;104457;1276;97927;-64
2023/05/31 03:50:20;;;;;;;15.10;8.20;;;;;;;10.39;76.57;99213.95;104572;1270;97900;-64
2023/05/31 03:52:47;;;;;;;15.60;8.50;;;;;;;10.44;76.27;99215.19;104562;1274;99102;-64
2023/05/31 03:55:14;;;;;;;20.30;9.10;;;;;;;10.49;76.13;99214.31;104586;1273;99246;-65
2023/05/31 03:57:41;;;;;;;22.00;9.90;;;;;;;10.65;75.87;99217.94;104577;1274;98195;-65
2023/05/31 04:00:12;;;;;;;20.60;10.70;;;;;;;10.83;75.45;99219.13;104600;1264;99226;-63
2023/05/31 04:02:39;;;;;;;;;;;;;;;10.91;75.26;99216.24;104644;1264;112188;-65
2023/05/31 04:05:18;;;;;;;21.20;10.80;;;;;;;11.05;75.12;99214.83;104576;1276;99260;-63
2023/05/31 04:07:45;;;;;;;25.20;11.00;;;;;;;11.21;75.05;99215.25;104590;1276;97942;-64
2023/05/31 04:10:12;;;;;;;25.10;10.60;;;;;;;11.39;74.35;99215.17;104641;1263;99184;-64
2023/05/31 04:12:39;;;;;;;26.40;10.60;;;;;;;11.61;74.04;99210.71;104578;1283;98030;-64
2023/05/31 04:15:07;;;;;;;25.30;11.20;;;;;;;11.82;73.08;99212.46;104585;1265;97922;-64
2023/05/31 04:17:34;;;;;;;26.60;10.00;;;;;;;12.01;72.73;99208.10;104601;1264;98445;-65
2023/05/31 04:20:04;;;;;;;26.30;11.40;;;;;;;12.18;72.44;99207.84;104589;1276;99103;-64
2023/05/31 04:22:31;;;;;;;23.70;11.30;;;;;;;12.40;72.03;99203.59;104598;1274;97916;-64
2023/05/31 04:24:58;;;;;;;26.10;11.30;;;;;;;12.53;71.40;99202.65;104597;1261;98066;-65
2023/05/31 04:27:25;;;;;;;22.60;10.50;;;;;;;12.61;71.08;99198.50;104777;1264;97944;-64
2023/05/31 04:29:53;;;;;;;19.90;9.50;;;;;;;12.77;70.49;99201.63;104599;1271;98552;-65
2023/05/31 04:32:25;;;;;;;22.10;9.70;;;;;;;12.98;69.90;99197.88;104833;1263;98024;-65
2023/05/31 04:34:57;;;;;;;20.70;9.20;;;;;;;13.17;69.27;99199.13;104695;1263;97937;-64
2023/05/31 04:37:28;;;;;;;22.70;9.20;;;;;;;13.36;68.86;99198.21;104648;1263;98729;-64
2023/05/31 04:39:59;;;;;;;;;;;;;;;13.58;67.86;99197.40;104785;1261;112233;-63
2023/05/31 04:42:26;;;;;;;;;;;;;;;13.73;67.29;99197.77;104872;1273;100102;-69
2023/05/31 04:44:57;;;;;;;10.70;5.70;;;;;;;13.86;64.88;99204.13;104952;1267;97903;-65
2023/05/31 04:47:34;;;;;;;16.30;5.80;;;;;;;13.88;62.32;99203.11;104861;1264;98814;-67
2023/05/31 04:50:08;;;;;;;10.90;5.20;;;;;;;13.92;62.05;99206.45;104893;1263;97937;-67
2023/05/31 04:52:39;;;;;;;12.70;5.40;;;;;;;13.99;61.83;99202.13;104916;1261;112151;-67
2023/05/31 04:55:08;;;;;;;10.10;4.80;;;;;;;14.16;62.27;99201.28;104888;1261;98358;-65
2023/05/31 04:57:35;;;;;;;7.80;4.50;;;;;;;14.35;60.84;99206.63;104933;1263;106806;-68
2023/05/31 05:00:08;;;;;;;10.90;5.30;;;;;;;14.34;60.55;99208.98;104913;1270;98001;-66
2023/05/31 05:02:36;;;;;;;12.00;5.70;;;;;;;14.34;59.75;99210.42;104655;1263;98133;-65
2023/05/31 05:05:04;;;;;;;10.40;5.20;;;;;;;14.31;60.46;99208.09;104617;1267;111233;-65
2023/05/31 05:07:31;;;;;;;11.30;5.10;;;;;;;14.33;60.29;99204.64;104535;1263;98429;-65
2023/05/31 05:09:59;;;;;;;11.10;6.00;;;;;;;14.39;59.79;99201.66;104491;1262;99146;-65
2023/05/31 05:12:26;;;;;;;10.10;5.20;;;;;;;14.43;60.25;99202.77;104556;1274;98096;-64
2023/05/31 05:14:53;;;;;;;8.70;4.50;;;;;;;14.49;60.43;99206.41;104923;1271;98049;-64
2023/05/31 05:17:20;;;;;;;10.70;4.70;;;;;;;14.56;60.17;99205.79;104923;1258;97963;-66
2023/05/31 05:19:47;;;;;;;10.30;4.50;;;;;;;14.70;60.17;99211.27;104913;1281;98594;-65
2023/05/31 05:22:15;;;;;;;9.70;5.10;;;;;;;14.75;59.41;99214.70;104863;1262;97918;-65
2023/05/31 05:24:42;;;;;;;10.90;4.90;;;;;;;14.90;60.17;99211.52;104891;1259;98002;-64
2023/05/31 05:27:09;;;;;;;11.00;4.80;;;;;;;15.07;59.71;99214.83;104907;1262;97902;-64
2023/05/31 05:29:36;;;;;;;7.90;4.20;;;;;;;15.25;58.56;99216.70;104880;1262;98012;-65
2023/05/31 05:32:04;;;;;;;9.70;4.80;;;;;;;15.25;58.29;99220.66;104855;1275;99757;-64
2023/05/31 05:34:31;;;;;;;8.80;4.30;;;;;;;15.30;57.83;99220.09;104928;1274;97997;-64
2023/05/31 05:36:59;;;;;;;9.70;4.40;;;;;;;15.44;57.79;99222.40;104883;1273;99219;-63
2023/05/31 05:39:27;;;;;;;10.40;4.50;;;;;;;15.61;58.51;99224.79;104894;1270;97970;-65
2023/05/31 05:41:54;;;;;;;8.70;4.00;;;;;;;15.89;57.20;99223.58;104867;1264;98014;-65
2023/05/31 05:44:21;;;;;;;10.20;4.10;;;;;;;16.09;56.26;99219.29;104915;1263;97912;-64
2023/05/31 05:46:50;;;;;;;19.00;5.00;;;;;;;16.13;55.75;99222.84;104882;1263;97957;-64
2023/05/31 05:49:17;;;;;;;11.40;4.00;;;;;;;16.20;55.36;99223.48;104732;1263;97944;-63
2023/05/31 05:51:45;;;;;;;10.60;3.90;;;;;;;16.39;56.30;99218.89;104562;1274;98127;-63
2023/05/31 05:54:13;;;;;;;10.70;3.50;;;;;;;16.62;55.05;99220.55;104706;1262;98012;-64
2023/05/31 05:56:40;;;;;;;11.70;3.70;;;;;;;16.75;54.87;99217.39;104535;1262;99286;-61
2023/05/31 05:59:08;;;;;;;8.70;3.50;;;;;;;17.00;54.83;99217.20;104426;1271;108734;-66
2023/05/31 06:01:36;;;;;;;9.60;3.40;;;;;;;17.19;54.67;99218.48;104405;1281;98027;-64
2023/05/31 06:04:04;;;;;;;7.20;3.00;;;;;;;17.44;54.13;99224.11;104794;1262;99100;-70
2023/05/31 06:06:31;;;;;;;5.90;2.90;;;;;;;17.67;54.29;99225.38;104934;1263;112281;-67
2023/05/31 06:08:59;;;;;;;5.50;2.80;;;;;;;17.91;52.65;99228.34;104908;1258;98567;-66
2023/05/31 06:11:26;;;;;;;9.10;3.40;;;;;;;17.82;51.07;99226.23;104901;1260;99264;-64
2023/05/31 06:13:57;;;;;;;8.50;3.30;;;;;;;17.77;51.56;99225.77;104900;1257;99328;-65
2023/05/31 06:16:24;;;;;;;5.70;2.70;;;;;;;17.87;50.74;99227.33;104652;1258;98062;-65
2023/05/31 06:18:53;;;;;;;5.10;2.70;;;;;;;17.91;50.40;99225.22;104818;1263;111296;-66
2023/05/31 06:21:20;;;;;;;4.20;2.50;;;;;;;17.94;49.16;99228.17;104692;1257;98568;-67
2023/05/31 06:23:47;;;;;;;6.30;3.00;;;;;;;18.03;49.86;99229.08;104824;1278;97921;-66
2023/05/31 06:26:14;;;;;;;5.80;2.50;;;;;;;18.14;48.07;99225.93;104879;1262;97938;-65
2023/05/31 06:28:42;;;;;;;6.30;3.00;;;;;;;18.16;48.43;99225.11;104881;1258;99270;-66
2023/05/31 06:31:09;;;;;;;5.70;2.60;;;;;;;18.22;49.04;99223.16;104746;1274;98738;-66
2023/05/31 06:33:36;;;;;;;5.30;2.50;;;;;;;18.42;49.80;99220.30;104776;1264;98561;-66
2023/05/31 06:36:04;;;;;;;6.10;2.30;;;;;;;18.66;47.40;99218.42;104716;1271;99154;-66
2023/05/31 06:38:31;;;;;;;5.50;2.10;;;;;;;18.65;47.17;99220.15;104581;1262;97928;-66
2023/05/31 06:40:58;;;;;;;4.30;1.80;;;;;;;18.78;46.57;99218.84;104899;1263;97932;-66
2023/05/31 06:43:26;;;;;;;6.70;2.20;;;;;;;18.84;45.85;99222.69;104663;1262;99221;-66
2023/05/31 06:45:54;;;;;;;5.10;2.20;;;;;;;18.87;45.49;99222.87;104836;1273;98839;-66
2023/05/31 06:48:21;;;;;;;5.00;2.30;;;;;;;18.88;45.36;99224.95;104845;1262;98815;-66
2023/05/31 06:50:48;;;;;;;4.70;2.30;;;;;;;18.96;45.05;99227.62;104673;1262;97954;-66
2023/05/31 06:53:16;;;;;;;4.50;2.20;;;;;;;19.12;44.90;99227.58;104892;1260;98108;-65
2023/05/31 06:55:44;;;;;;;4.20;2.50;;;;;;;19.38;45.65;99225.44;104787;1262;97937;-65
2023/05/31 06:58:15;;;;;;;7.00;2.40;;;;;;;19.64;44.28;99225.70;104446;1277;98009;-65
2023/05/31 07:00:42;;;;;;;;;;;;;;;19.80;44.22;99223.77;104700;1262;108237;-65
2023/05/31 07:03:12;;;;;;;5.20;2.20;;;;;;;20.02;44.34;99224.42;104446;1267;98067;-66
2023/05/31 07:05:43;;;;;;;8.10;3.30;;;;;;;20.24;43.94;99218.54;104651;1281;98280;-64
2023/05/31 07:08:11;;;;;;;7.10;2.30;;;;;;;20.48;43.83;99215.19;104662;1265;110650;-65
2023/05/31 07:10:38;;;;;;;3.00;1.90;;;;;;;20.56;42.86;99216.38;104886;1258;98710;-64
2023/05/31 07:13:06;;;;;;;3.40;2.00;;;;;;;20.68;42.46;99217.09;104923;1265;98644;-64
2023/05/31 07:15:34;;;;;;;6.80;2.40;;;;;;;20.84;41.63;99216.49;104616;1269;98084;-65
2023/05/31 07:18:02;;;;;;;6.90;2.40;;;;;;;20.88;41.62;99216.48;104821;1260;97920;-64
2023/05/31 07:20:29;;;;;;;4.70;2.10;;;;;;;21.10;42.38;99215.23;104767;1264;112375;-64
2023/05/31 07:22:58;;;;;;;5.70;2.40;;;;;;;21.36;41.72;99212.48;104585;1267;98153;-65
2023/05/31 07:25:25;;;;;;;5.90;3.00;;;;;;;21.58;41.51;99208.42;104506;1268;107712;-64
2023/05/31 07:27:52;;;;;;;5.60;2.40;;;;;;;21.91;41.25;99210.34;104585;1272;98011;-64
2023/05/31 07:30:20;;;;;;;6.10;3.10;;;;;;;22.22;41.35;99210.66;104836;1262;97923;-64
2023/05/31 07:32:47;;;;;;;7.20;2.40;;;;;;;22.55;40.86;99209.46;104752;1264;97919;-64
2023/05/31 07:35:15;;;;;;;4.80;2.30;;;;;;;22.62;38.48;99210.76;104511;1260;98416;-65
2023/05/31 07:37:42;;;;;;;4.50;2.20;;;;;;;22.56;38.86;99206.93;104846;1258;108691;-64
2023/05/31 07:40:11;;;;;;;5.90;2.40;;;;;;;22.72;38.97;99209.75;104922;1270;97954;-65
2023/05/31 07:42:38;;;;;;;4.80;2.20;;;;;;;23.08;38.83;99211.66;104608;1263;97897;-65
2023/05/31 07:45:07;;;;;;;5.60;2.40;;;;;;;23.37;38.51;99202.58;104532;1262;98002;-64
2023/05/31 07:47:34;;;;;;;5.20;2.00;;;;;;;23.67;37.88;99203.76;104614;1260;99201;-65
2023/05/31 07:50:02;;;;;;;3.50;2.00;;;;;;;23.85;37.58;99204.34;104629;1264;99218;-65
2023/05/31 07:52:29;;;;;;;4.30;2.40;;;;;;;24.04;37.32;99199.55;104534;1264;97945;-65
2023/05/31 07:54:57;;;;;;;4.90;2.10;;;;;;;24.20;36.47;99200.46;104640;1262;97992;-63
2023/05/31 07:57:25;;;;;;;3.80;2.40;;;;;;;24.29;35.90;99197.20;104544;1267;111256;-65
2023/05/31 07:59:52;;;;;;;3.40;2.00;;;;;;;24.09;35.29;99192.32;104658;1273;99245;-65
2023/05/31 08:02:20;;;;;;;4.40;2.00;;;;;;;23.89;35.44;99189.58;104590;1263;108425;-65
2023/05/31 08:04:48;;;;;;;3.80;1.90;;;;;;;23.93;34.35;99189.84;104642;1263;98004;-65
2023/05/31 08:07:16;;;;;;;3.30;1.90;;;;;;;23.88;34.01;99189.02;104581;1260;99161;-65
2023/05/31 08:09:44;;;;;;;3.60;2.00;;;;;;;23.76;34.01;99187.42;104552;1273;111253;-66
2023/05/31 08:12:11;;;;;;;9.70;5.30;;;;;;;23.95;34.42;99180.48;104573;1263;98285;-65
2023/05/31 08:14:38;;;;;;;4.50;1.60;;;;;;;24.23;34.55;99181.58;104383;1267;108454;-64
2023/05/31 08:17:06;;;;;;;4.10;1.90;;;;;;;24.48;34.08;99183.50;104504;1275;97970;-66
2023/05/31 08:19:34;;;;;;;5.00;1.80;;;;;;;24.77;34.45;99178.43;104797;1260;98379;-66
2023/05/31 08:22:02;;;;;;;4.40;2.10;;;;;;;25.20;33.54;99179.52;104735;1263;112181;-66
2023/05/31 08:24:29;;;;;;;2.70;1.80;;;;;;;25.41;33.39;99181.91;104941;1261;97992;-66
2023/05/31 08:26:58;;;;;;;4.90;2.00;;;;;;;25.27;31.97;99182.17;104645;1279;97941;-66
2023/05/31 08:29:25;;;;;;;2.00;1.00;;;;;;;25.16;31.11;99185.61;104538;1258;98751;-66
2023/05/31 08:31:52;;;;;;;3.30;1.10;;;;;;;24.69;29.55;99187.22;104806;1262;97829;-66
2023/05/31 08:34:19;;;;;;;1.70;1.00;;;;;;;23.93;29.73;99193.17;104627;1263;98713;-67
2023/05/31 08:36:47;;;;;;;3.30;1.90;;;;;;;23.54;30.82;99193.12;104788;1264;99445;-66
2023/05/31 08:39:15;;;;;;;2.30;1.30;;;;;;;23.48;30.33;99192.75;104713;1262;97911;-66
2023/05/31 08:41:53;;;;;;;2.80;1.50;;;;;;;23.38;30.98;99193.48;104807;1262;98601;-66
2023/05/31 08:44:21;;;;;;;2.90;1.70;;;;;;;23.60;31.11;99198.74;104517;1264;98058;-66
2023/05/31 08:46:48;;;;;;;3.10;1.50;;;;;;;23.72;31.01;99189.48;104580;1264;112289;-66
2023/05/31 08:49:18;;;;;;;4.60;1.40;;;;;;;23.85;30.84;99191.95;104447;1257;98717;-67
2023/05/31 08:51:47;;;;;;;4.40;1.30;;;;;;;23.87;31.12;99195.63;104471;1266;107123;-65
2023/05/31 08:54:16;;;;;;;;;;;;;;;23.94;30.65;99194.80;104508;1265;99443;-65
2023/05/31 08:56:45;;;;;;;5.10;1.60;;;;;;;24.00;30.05;99192.26;104556;1265;97946;-68
2023/05/31 08:59:17;;;;;;;3.90;1.50;;;;;;;24.12;30.13;99197.69;104488;1267;110991;-65
2023/05/31 09:01:46;;;;;;;3.30;0.90;;;;;;;24.16;29.72;99195.86;104884;1262;99126;-66
2023/05/31 09:04:14;;;;;;;5.10;1.50;;;;;;;23.94;29.87;99201.98;104970;1278;107784;-65
2023/05/31 09:06:43;;;;;;;2.50;1.30;;;;;;;23.99;29.77;99203.13;104588;1265;98133;-66
2023/05/31 09:09:11;;;;;;;4.20;1.60;;;;;;;24.22;30.47;99202.94;104921;1263;97921;-65
2023/05/31 09:11:40;;;;;;;1.80;1.30;;;;;;;24.64;30.06;99199.70;104827;1263;99230;-64
2023/05/31 09:14:10;;;;;;;4.50;1.30;;;;;;;24.71;29.64;99198.04;104590;1265;98696;-65
2023/05/31 09:16:37;;;;;;;;;;;;;;;24.87;29.76;99192.80;104902;1262;108265;-65
2023/05/31 09:19:06;;;;;;;3.30;1.30;;;;;;;24.57;29.79;99191.92;104521;1265;98104;-65
2023/05/31 09:21:41;;;;;;;3.70;1.50;;;;;;;24.45;29.48;99190.05;104501;1266;98011;-65
2023/05/31 09:24:10;;;;;;;3.20;1.40;;;;;;;24.66;30.32;99191.05;104594;1265;111271;-63
2023/05/31 09:26:51;;;;;;;3.30;1.60;;;;;;;25.47;30.13;99184.23;104556;1264;97872;-66
2023/05/31 09:29:20;;;;;;;4.30;1.60;;;;;;;25.51;28.71;99184.47;105045;1262;107157;-65
2023/05/31 09:32:08;;;;;;;2.90;1.50;;;;;;;25.03;29.38;99187.05;104598;1267;97926;-63
2023/05/31 09:34:35;;;;;;;5.40;1.90;;;;;;;24.90;29.26;99188.41;104626;1258;99557;-63
2023/05/31 09:37:03;;;;;;;3.00;1.50;;;;;;;24.95;29.85;99183.52;104657;1262;110738;-63
2023/05/31 09:39:31;;;;;;;5.20;1.80;;;;;;;25.39;29.86;99182.55;104593;1264;99110;-62
2023/05/31 09:41:59;;;;;;;2.50;1.30;;;;;;;25.83;28.48;99185.21;104621;1258;107645;-63
2023/05/31 09:44:30;;;;;;;4.20;2.00;;;;;;;25.51;27.41;99189.36;104557;1273;98025;-63
2023/05/31 09:47:07;;;;;;;3.20;1.60;;;;;;;25.44;28.44;99183.42;104623;1258;99705;-64
2023/05/31 09:49:35;;;;;;;3.80;1.70;;;;;;;25.87;29.32;99177.25;104888;1263;112191;-64
2023/05/31 09:52:03;;;;;;;5.30;1.80;;;;;;;26.55;28.48;99176.73;104619;1268;98849;-64
2023/05/31 09:54:37;;;;;;;3.70;1.90;;;;;;;26.92;26.87;99175.37;104848;1257;108616;-64
2023/05/31 09:57:05;;;;;;;4.50;1.60;;;;;;;26.83;26.33;99175.19;104757;1262;97945;-64
2023/05/31 09:59:33;;;;;;;2.90;1.60;;;;;;;26.82;26.46;99173.50;104557;1273;98074;-63
2023/05/31 10:02:01;;;;;;;2.90;1.60;;;;;;;26.58;26.83;99169.42;104713;1262;112263;-65
2023/05/31 10:04:29;;;;;;;2.10;1.60;;;;;;;25.97;27.81;99166.88;104847;1274;99253;-64
2023/05/31 10:06:56;;;;;;;4.10;1.60;;;;;;;25.42;28.52;99167.72;104864;1262;108619;-64
2023/05/31 10:09:24;;;;;;;3.90;1.90;;;;;;;25.40;28.80;99163.30;104635;1275;98006;-64
2023/05/31 10:11:56;;;;;;;3.60;1.60;;;;;;;25.76;29.16;99153.30;104614;1262;98039;-64
2023/05/31 10:14:38;;;;;;;3.80;1.80;;;;;;;26.19;29.25;99155.07;104797;1262;110779;-63
2023/05/31 10:17:18;;;;;;;5.20;1.90;;;;;;;26.87;28.81;99146.88;104557;1262;98322;-64
2023/05/31 10:19:50;;;;;;;4.00;1.90;;;;;;;27.10;28.42;99148.33;104617;1275;108535;-66
2023/05/31 10:22:18;;;;;;;3.00;1.90;;;;;;;27.44;28.60;99142.23;104522;1265;97942;-67
2023/05/31 10:24:52;;;;;;;4.20;2.20;;;;;;;27.60;27.80;99137.14;104723;1262;98880;-63
2023/05/31 10:27:38;;;;;;;2.80;1.70;;;;;;;27.92;27.95;99140.18;104463;1265;111291;-64
2023/05/31 10:30:09;;;;;;;3.30;1.80;;;;;;;28.01;26.84;99138.94;104534;1265;98701;-64
2023/05/31 10:32:46;;;;;;;5.50;2.30;;;;;;;28.04;26.91;99136.64;104649;1262;108676;-63
2023/05/31 10:35:13;;;;;;;4.00;1.90;;;;;;;28.34;27.50;99132.56;104905;1258;97915;-63
2023/05/31 10:37:44;;;;;;;3.30;1.80;;;;;;;28.88;26.70;99129.44;104940;1262;98020;-64
2023/05/31 10:40:24;;;;;;;5.10;1.80;;;;;;;28.84;27.29;99124.88;104549;1268;111383;-64
2023/05/31 10:42:54;;;;;;;3.30;1.80;;;;;;;29.20;27.47;99124.29;104907;1262;98917;-64
2023/05/31 10:45:44;;;;;;;4.20;1.80;;;;;;;29.36;26.23;99123.05;104894;1258;107730;-64
2023/05/31 10:48:26;;;;;;;;;;;;;;;29.30;26.05;99123.02;104582;1260;97907;-64
2023/05/31 10:51:01;;;;;;;4.20;2.00;;;;;;;28.96;26.15;99124.63;104572;1265;99757;-65
2023/05/31 10:53:36;;;;;;;3.30;2.10;;;;;;;29.25;26.53;99121.70;104773;1261;112243;-65
2023/05/31 10:56:09;;;;;;;6.10;2.10;;;;;;;29.58;26.35;99116.75;104750;1266;99590;-65
2023/05/31 10:58:38;;;;;;;3.70;1.90;;;;;;;30.01;24.82;99114.85;104599;1267;107570;-64
2023/05/31 11:01:20;;;;;;;8.60;2.00;;;;;;;29.43;25.30;99116.95;104906;1260;99184;-64
2023/05/31 11:03:51;;;;;;;3.70;2.00;;;;;;;28.63;25.28;99121.42;104926;1260;98972;-64
2023/05/31 11:06:36;;;;;;;4.30;2.00;;;;;;;28.40;25.38;99116.14;104612;1257;111491;-64
2023/05/31 11:09:12;;;;;;;3.40;2.00;;;;;;;27.63;25.94;99112.52;104602;1264;98584;-64
2023/05/31 11:11:40;;;;;;;3.90;2.20;;;;;;;27.08;26.55;99110.48;104591;1265;106930;-64
2023/05/31 11:14:25;;;;;;;4.90;2.40;;;;;;;27.22;27.34;99111.80;104590;1265;98098;-64
2023/05/31 11:16:53;;;;;;;6.50;2.00;;;;;;;28.03;26.72;99106.71;104841;1262;98703;-64
2023/05/31 11:19:28;;;;;;;4.10;1.90;;;;;;;28.47;25.74;99102.10;104746;1263;111142;-64
2023/05/31 11:21:59;;;;;;;4.10;2.20;;;;;;;28.16;25.64;99097.69;104908;1262;99267;-64
2023/05/31 11:24:30;;;;;;;4.30;2.20;;;;;;;27.93;26.33;99097.60;104921;1262;108567;-64
2023/05/31 11:26:59;;;;;;;4.00;1.80;;;;;;;27.55;26.41;99094.41;104908;1271;97984;-64
2023/05/31 11:29:47;;;;;;;4.60;2.20;;;;;;;27.59;26.39;99086.98;104784;1276;97941;-64
2023/05/31 11:32:17;;;;;;;3.50;1.80;;;;;;;28.09;26.22;99088.45;104904;1262;112393;-64